sensor_id;sensor_type;location;lat;lon;timestamp;P1;durP1;ratioP1;P2;durP2;ratioP2
47009;SDS011;59230;54.164;-3.124;2022-07-29T00:01:03;10.35;;;4.00;;
47009;SDS011;59230;54.164;-3.124;2022-07-29T00:03:29;11.85;;;4.25;;
47009;SDS011;59230;54.164;-3.124;2022-07-29T00:05:58;15.00;;;4.20;;
47009;SDS011;59230;54.164;-3.124;2022-07-29T00:08:24;14.02;;;4.53;;
47009;SDS011;59230;54.164;-3.124;2022-07-29T00:10:49;15.77;;;4.10;;
47009;SDS011;59230;54.164;-3.124;2022-07-29T00:13:18;15.52;;;5.07;;
47009;SDS011;59230;54.164;-3.124;2022-07-29T00:15:45;14.52;;;4.43;;
47009;SDS011;59230;54.164;-3.124;2022-07-29T00:18:13;14.73;;;4.38;;
47009;SDS011;59230;54.164;-3.124;2022-07-29T00:20:40;15.93;;;4.43;;
47009;SDS011;59230;54.164;-3.124;2022-07-29T00:26:01;13.95;;;4.25;;
47009;SDS011;59230;54.164;-3.124;2022-07-29T00:28:28;13.02;;;4.97;;
47009;SDS011;59230;54.164;-3.124;2022-07-29T00:30:55;11.05;;;4.10;;
47009;SDS011;59230;54.164;-3.124;2022-07-29T00:36:11;12.05;;;4.30;;
47009;SDS011;59230;54.164;-3.124;2022-07-29T00:38:36;17.85;;;4.97;;
47009;SDS011;59230;54.164;-3.124;2022-07-29T00:41:03;14.48;;;5.43;;
47009;SDS011;59230;54.164;-3.124;2022-07-29T00:43:29;13.15;;;4.88;;
47009;SDS011;59230;54.164;-3.124;2022-07-29T00:45:57;10.85;;;4.50;;
47009;SDS011;59230;54.164;-3.124;2022-07-29T00:48:23;10.60;;;4.32;;
47009;SDS011;59230;54.164;-3.124;2022-07-29T00:50:51;15.18;;;5.07;;
47009;SDS011;59230;54.164;-3.124;2022-07-29T00:53:19;17.13;;;5.00;;
47009;SDS011;59230;54.164;-3.124;2022-07-29T00:55:46;12.63;;;4.15;;
47009;SDS011;59230;54.164;-3.124;2022-07-29T00:58:11;13.00;;;4.57;;
47009;SDS011;59230;54.164;-3.124;2022-07-29T01:00:39;12.18;;;4.40;;
47009;SDS011;59230;54.164;-3.124;2022-07-29T01:03:06;8.50;;;4.47;;
47009;SDS011;59230;54.164;-3.124;2022-07-29T01:05:32;9.27;;;4.20;;
47009;SDS011;59230;54.164;-3.124;2022-07-29T01:07:58;11.98;;;4.63;;
47009;SDS011;59230;54.164;-3.124;2022-07-29T01:10:25;14.68;;;4.80;;
47009;SDS011;59230;54.164;-3.124;2022-07-29T01:12:51;10.35;;;4.72;;
47009;SDS011;59230;54.164;-3.124;2022-07-29T01:15:20;10.23;;;4.80;;
47009;SDS011;59230;54.164;-3.124;2022-07-29T01:18:01;9.93;;;4.22;;
47009;SDS011;59230;54.164;-3.124;2022-07-29T01:21:05;11.57;;;4.10;;
47009;SDS011;59230;54.164;-3.124;2022-07-29T01:29:35;12.32;;;4.70;;
47009;SDS011;59230;54.164;-3.124;2022-07-29T01:32:19;13.40;;;4.55;;
47009;SDS011;59230;54.164;-3.124;2022-07-29T01:42:58;18.05;;;4.35;;
47009;SDS011;59230;54.164;-3.124;2022-07-29T01:48:20;10.00;;;3.95;;
47009;SDS011;59230;54.164;-3.124;2022-07-29T01:51:03;11.98;;;3.72;;
47009;SDS011;59230;54.164;-3.124;2022-07-29T01:56:04;13.88;;;3.85;;
47009;SDS011;59230;54.164;-3.124;2022-07-29T01:58:34;14.77;;;3.92;;
47009;SDS011;59230;54.164;-3.124;2022-07-29T02:01:03;10.93;;;3.85;;
47009;SDS011;59230;54.164;-3.124;2022-07-29T02:03:30;13.57;;;3.88;;
47009;SDS011;59230;54.164;-3.124;2022-07-29T02:06:00;11.85;;;3.65;;
47009;SDS011;59230;54.164;-3.124;2022-07-29T02:08:29;9.68;;;3.35;;
47009;SDS011;59230;54.164;-3.124;2022-07-29T02:10:57;8.70;;;3.90;;
47009;SDS011;59230;54.164;-3.124;2022-07-29T02:13:25;9.57;;;3.80;;
47009;SDS011;59230;54.164;-3.124;2022-07-29T02:15:54;13.57;;;3.97;;
47009;SDS011;59230;54.164;-3.124;2022-07-29T02:18:21;16.02;;;5.20;;
47009;SDS011;59230;54.164;-3.124;2022-07-29T02:20:48;11.73;;;4.38;;
47009;SDS011;59230;54.164;-3.124;2022-07-29T02:23:16;10.23;;;4.70;;
47009;SDS011;59230;54.164;-3.124;2022-07-29T02:25:51;14.13;;;4.60;;
47009;SDS011;59230;54.164;-3.124;2022-07-29T02:28:24;9.98;;;4.25;;
47009;SDS011;59230;54.164;-3.124;2022-07-29T02:30:55;14.85;;;4.28;;
47009;SDS011;59230;54.164;-3.124;2022-07-29T02:33:24;16.83;;;3.90;;
47009;SDS011;59230;54.164;-3.124;2022-07-29T02:35:52;17.30;;;4.22;;
47009;SDS011;59230;54.164;-3.124;2022-07-29T02:43:18;13.57;;;4.13;;
47009;SDS011;59230;54.164;-3.124;2022-07-29T02:45:45;8.63;;;3.80;;
47009;SDS011;59230;54.164;-3.124;2022-07-29T02:48:15;12.23;;;5.05;;
47009;SDS011;59230;54.164;-3.124;2022-07-29T02:50:48;13.75;;;4.07;;
47009;SDS011;59230;54.164;-3.124;2022-07-29T02:53:22;10.82;;;4.22;;
47009;SDS011;59230;54.164;-3.124;2022-07-29T02:55:54;16.00;;;4.35;;
47009;SDS011;59230;54.164;-3.124;2022-07-29T02:58:33;12.25;;;4.40;;
47009;SDS011;59230;54.164;-3.124;2022-07-29T03:01:02;13.88;;;4.70;;
47009;SDS011;59230;54.164;-3.124;2022-07-29T03:03:31;17.23;;;4.90;;
47009;SDS011;59230;54.164;-3.124;2022-07-29T03:06:00;10.98;;;4.75;;
47009;SDS011;59230;54.164;-3.124;2022-07-29T03:08:27;9.45;;;4.53;;
47009;SDS011;59230;54.164;-3.124;2022-07-29T03:10:56;13.85;;;5.15;;
47009;SDS011;59230;54.164;-3.124;2022-07-29T03:13:24;10.07;;;4.57;;
47009;SDS011;59230;54.164;-3.124;2022-07-29T03:15:53;15.02;;;4.90;;
47009;SDS011;59230;54.164;-3.124;2022-07-29T03:18:21;11.23;;;4.90;;
47009;SDS011;59230;54.164;-3.124;2022-07-29T03:20:50;16.20;;;4.95;;
47009;SDS011;59230;54.164;-3.124;2022-07-29T03:23:20;13.38;;;5.00;;
47009;SDS011;59230;54.164;-3.124;2022-07-29T03:25:50;9.23;;;4.35;;
47009;SDS011;59230;54.164;-3.124;2022-07-29T03:28:15;11.63;;;4.20;;
47009;SDS011;59230;54.164;-3.124;2022-07-29T03:30:42;15.68;;;5.15;;
47009;SDS011;59230;54.164;-3.124;2022-07-29T03:33:07;12.43;;;4.57;;
47009;SDS011;59230;54.164;-3.124;2022-07-29T03:35:33;11.20;;;4.68;;
47009;SDS011;59230;54.164;-3.124;2022-07-29T03:37:59;15.00;;;4.80;;
47009;SDS011;59230;54.164;-3.124;2022-07-29T03:43:15;11.95;;;4.68;;
47009;SDS011;59230;54.164;-3.124;2022-07-29T03:45:44;11.55;;;4.85;;
47009;SDS011;59230;54.164;-3.124;2022-07-29T03:48:15;7.93;;;4.57;;
47009;SDS011;59230;54.164;-3.124;2022-07-29T03:50:44;12.15;;;4.85;;
47009;SDS011;59230;54.164;-3.124;2022-07-29T03:53:10;13.25;;;5.07;;
47009;SDS011;59230;54.164;-3.124;2022-07-29T03:55:44;11.45;;;4.95;;
47009;SDS011;59230;54.164;-3.124;2022-07-29T03:58:11;10.93;;;4.60;;
47009;SDS011;59230;54.164;-3.124;2022-07-29T04:00:38;21.33;;;5.10;;
47009;SDS011;59230;54.164;-3.124;2022-07-29T04:03:04;16.83;;;6.03;;
47009;SDS011;59230;54.164;-3.124;2022-07-29T04:05:31;16.42;;;5.00;;
47009;SDS011;59230;54.164;-3.124;2022-07-29T04:07:58;13.50;;;5.47;;
47009;SDS011;59230;54.164;-3.124;2022-07-29T04:10:23;14.88;;;4.85;;
47009;SDS011;59230;54.164;-3.124;2022-07-29T04:12:50;13.02;;;5.13;;
47009;SDS011;59230;54.164;-3.124;2022-07-29T04:15:17;12.18;;;4.57;;
47009;SDS011;59230;54.164;-3.124;2022-07-29T04:17:45;11.80;;;4.90;;
47009;SDS011;59230;54.164;-3.124;2022-07-29T04:20:15;12.43;;;5.05;;
47009;SDS011;59230;54.164;-3.124;2022-07-29T04:22:43;14.23;;;4.80;;
47009;SDS011;59230;54.164;-3.124;2022-07-29T04:25:11;11.85;;;5.47;;
47009;SDS011;59230;54.164;-3.124;2022-07-29T04:27:36;13.15;;;4.70;;
47009;SDS011;59230;54.164;-3.124;2022-07-29T04:30:23;12.10;;;5.20;;
47009;SDS011;59230;54.164;-3.124;2022-07-29T04:32:49;12.68;;;5.43;;
47009;SDS011;59230;54.164;-3.124;2022-07-29T04:35:15;12.65;;;5.00;;
47009;SDS011;59230;54.164;-3.124;2022-07-29T04:37:40;13.52;;;5.38;;
47009;SDS011;59230;54.164;-3.124;2022-07-29T04:40:06;12.32;;;5.03;;
47009;SDS011;59230;54.164;-3.124;2022-07-29T04:45:16;17.58;;;5.10;;
47009;SDS011;59230;54.164;-3.124;2022-07-29T04:47:42;12.60;;;5.68;;
47009;SDS011;59230;54.164;-3.124;2022-07-29T04:50:08;13.52;;;5.28;;
47009;SDS011;59230;54.164;-3.124;2022-07-29T04:52:34;15.05;;;5.65;;
47009;SDS011;59230;54.164;-3.124;2022-07-29T04:55:02;10.13;;;5.50;;
47009;SDS011;59230;54.164;-3.124;2022-07-29T04:57:33;19.98;;;6.38;;
47009;SDS011;59230;54.164;-3.124;2022-07-29T04:59:59;23.15;;;5.80;;
47009;SDS011;59230;54.164;-3.124;2022-07-29T05:02:26;13.32;;;5.90;;
47009;SDS011;59230;54.164;-3.124;2022-07-29T05:04:55;17.27;;;6.20;;
47009;SDS011;59230;54.164;-3.124;2022-07-29T05:07:23;13.02;;;5.93;;
47009;SDS011;59230;54.164;-3.124;2022-07-29T05:09:50;14.65;;;6.13;;
47009;SDS011;59230;54.164;-3.124;2022-07-29T05:12:17;15.15;;;6.18;;
47009;SDS011;59230;54.164;-3.124;2022-07-29T05:14:45;17.83;;;5.90;;
47009;SDS011;59230;54.164;-3.124;2022-07-29T05:17:10;15.20;;;5.97;;
47009;SDS011;59230;54.164;-3.124;2022-07-29T05:19:37;15.68;;;6.03;;
47009;SDS011;59230;54.164;-3.124;2022-07-29T05:22:02;9.90;;;5.72;;
47009;SDS011;59230;54.164;-3.124;2022-07-29T05:24:29;18.08;;;6.22;;
47009;SDS011;59230;54.164;-3.124;2022-07-29T05:26:58;13.23;;;5.65;;
47009;SDS011;59230;54.164;-3.124;2022-07-29T05:29:25;20.27;;;5.90;;
47009;SDS011;59230;54.164;-3.124;2022-07-29T05:31:52;16.17;;;6.40;;
47009;SDS011;59230;54.164;-3.124;2022-07-29T05:34:18;13.65;;;5.90;;
47009;SDS011;59230;54.164;-3.124;2022-07-29T05:36:44;15.35;;;6.78;;
47009;SDS011;59230;54.164;-3.124;2022-07-29T05:39:11;13.75;;;6.28;;
47009;SDS011;59230;54.164;-3.124;2022-07-29T05:41:40;14.45;;;6.28;;
47009;SDS011;59230;54.164;-3.124;2022-07-29T05:46:57;12.60;;;6.03;;
47009;SDS011;59230;54.164;-3.124;2022-07-29T05:49:25;15.75;;;6.88;;
47009;SDS011;59230;54.164;-3.124;2022-07-29T05:51:51;14.10;;;6.60;;
47009;SDS011;59230;54.164;-3.124;2022-07-29T05:54:19;18.17;;;7.00;;
47009;SDS011;59230;54.164;-3.124;2022-07-29T05:56:49;16.48;;;6.05;;
47009;SDS011;59230;54.164;-3.124;2022-07-29T05:59:16;10.93;;;6.05;;
47009;SDS011;59230;54.164;-3.124;2022-07-29T06:01:45;18.85;;;6.35;;
47009;SDS011;59230;54.164;-3.124;2022-07-29T06:04:13;16.85;;;6.47;;
47009;SDS011;59230;54.164;-3.124;2022-07-29T06:06:40;10.82;;;6.00;;
47009;SDS011;59230;54.164;-3.124;2022-07-29T06:09:05;13.82;;;5.65;;
47009;SDS011;59230;54.164;-3.124;2022-07-29T06:11:34;14.73;;;6.50;;
47009;SDS011;59230;54.164;-3.124;2022-07-29T06:14:01;13.00;;;5.82;;
47009;SDS011;59230;54.164;-3.124;2022-07-29T06:16:31;14.70;;;5.90;;
47009;SDS011;59230;54.164;-3.124;2022-07-29T06:18:58;15.77;;;4.93;;
47009;SDS011;59230;54.164;-3.124;2022-07-29T06:21:23;14.95;;;5.30;;
47009;SDS011;59230;54.164;-3.124;2022-07-29T06:23:49;15.77;;;6.22;;
47009;SDS011;59230;54.164;-3.124;2022-07-29T06:26:17;9.60;;;5.00;;
47009;SDS011;59230;54.164;-3.124;2022-07-29T06:28:44;11.80;;;4.88;;
47009;SDS011;59230;54.164;-3.124;2022-07-29T06:31:10;14.05;;;4.93;;
47009;SDS011;59230;54.164;-3.124;2022-07-29T06:33:36;8.90;;;4.18;;
47009;SDS011;59230;54.164;-3.124;2022-07-29T06:36:03;13.40;;;4.82;;
47009;SDS011;59230;54.164;-3.124;2022-07-29T06:38:32;11.82;;;5.10;;
47009;SDS011;59230;54.164;-3.124;2022-07-29T06:40:59;18.98;;;4.80;;
47009;SDS011;59230;54.164;-3.124;2022-07-29T06:43:36;8.68;;;4.50;;
47009;SDS011;59230;54.164;-3.124;2022-07-29T06:46:08;12.40;;;5.05;;
47009;SDS011;59230;54.164;-3.124;2022-07-29T06:48:40;11.85;;;5.00;;
47009;SDS011;59230;54.164;-3.124;2022-07-29T06:51:08;12.52;;;4.95;;
47009;SDS011;59230;54.164;-3.124;2022-07-29T06:53:35;12.77;;;4.60;;
47009;SDS011;59230;54.164;-3.124;2022-07-29T06:56:02;12.35;;;4.40;;
47009;SDS011;59230;54.164;-3.124;2022-07-29T06:58:33;20.58;;;5.03;;
47009;SDS011;59230;54.164;-3.124;2022-07-29T07:01:01;17.35;;;5.18;;
47009;SDS011;59230;54.164;-3.124;2022-07-29T07:03:29;14.20;;;5.07;;
47009;SDS011;59230;54.164;-3.124;2022-07-29T07:05:55;13.73;;;5.18;;
47009;SDS011;59230;54.164;-3.124;2022-07-29T07:08:26;10.95;;;4.78;;
47009;SDS011;59230;54.164;-3.124;2022-07-29T07:10:51;14.30;;;4.95;;
47009;SDS011;59230;54.164;-3.124;2022-07-29T07:13:19;11.93;;;4.40;;
47009;SDS011;59230;54.164;-3.124;2022-07-29T07:15:46;11.40;;;4.97;;
47009;SDS011;59230;54.164;-3.124;2022-07-29T07:18:16;10.50;;;4.70;;
47009;SDS011;59230;54.164;-3.124;2022-07-29T07:20:43;13.05;;;4.03;;
47009;SDS011;59230;54.164;-3.124;2022-07-29T07:32:46;10.88;;;4.00;;
47009;SDS011;59230;54.164;-3.124;2022-07-29T07:35:12;7.82;;;3.90;;
47009;SDS011;59230;54.164;-3.124;2022-07-29T07:37:38;13.35;;;4.65;;
47009;SDS011;59230;54.164;-3.124;2022-07-29T07:40:07;10.10;;;4.30;;
47009;SDS011;59230;54.164;-3.124;2022-07-29T07:42:37;11.77;;;3.97;;
47009;SDS011;59230;54.164;-3.124;2022-07-29T07:45:04;10.90;;;3.72;;
47009;SDS011;59230;54.164;-3.124;2022-07-29T07:50:30;8.02;;;3.88;;
47009;SDS011;59230;54.164;-3.124;2022-07-29T07:52:55;9.02;;;3.63;;
47009;SDS011;59230;54.164;-3.124;2022-07-29T07:55:42;11.93;;;4.25;;
47009;SDS011;59230;54.164;-3.124;2022-07-29T07:58:10;13.07;;;4.00;;
47009;SDS011;59230;54.164;-3.124;2022-07-29T08:00:36;12.95;;;4.10;;
47009;SDS011;59230;54.164;-3.124;2022-07-29T08:03:02;9.18;;;4.15;;
47009;SDS011;59230;54.164;-3.124;2022-07-29T08:05:38;12.77;;;4.15;;
47009;SDS011;59230;54.164;-3.124;2022-07-29T08:08:05;12.98;;;3.65;;
47009;SDS011;59230;54.164;-3.124;2022-07-29T08:10:30;19.58;;;8.05;;
47009;SDS011;59230;54.164;-3.124;2022-07-29T08:13:20;10.20;;;4.07;;
47009;SDS011;59230;54.164;-3.124;2022-07-29T08:15:46;8.70;;;3.78;;
47009;SDS011;59230;54.164;-3.124;2022-07-29T08:18:12;10.82;;;3.92;;
47009;SDS011;59230;54.164;-3.124;2022-07-29T08:20:38;11.30;;;3.45;;
47009;SDS011;59230;54.164;-3.124;2022-07-29T08:23:04;13.45;;;3.38;;
47009;SDS011;59230;54.164;-3.124;2022-07-29T08:25:31;13.80;;;3.83;;
47009;SDS011;59230;54.164;-3.124;2022-07-29T08:27:57;8.02;;;3.80;;
47009;SDS011;59230;54.164;-3.124;2022-07-29T08:30:23;8.27;;;3.50;;
47009;SDS011;59230;54.164;-3.124;2022-07-29T08:32:48;9.45;;;3.50;;
47009;SDS011;59230;54.164;-3.124;2022-07-29T08:35:18;10.77;;;3.80;;
47009;SDS011;59230;54.164;-3.124;2022-07-29T08:37:47;8.00;;;2.90;;
47009;SDS011;59230;54.164;-3.124;2022-07-29T08:40:13;10.50;;;3.70;;
47009;SDS011;59230;54.164;-3.124;2022-07-29T08:42:39;10.07;;;3.72;;
47009;SDS011;59230;54.164;-3.124;2022-07-29T08:45:05;10.57;;;4.40;;
47009;SDS011;59230;54.164;-3.124;2022-07-29T08:47:31;10.57;;;4.25;;
47009;SDS011;59230;54.164;-3.124;2022-07-29T08:55:42;8.32;;;3.90;;
47009;SDS011;59230;54.164;-3.124;2022-07-29T08:58:08;9.95;;;3.70;;
47009;SDS011;59230;54.164;-3.124;2022-07-29T09:50:08;11.48;;;3.13;;
47009;SDS011;59230;54.164;-3.124;2022-07-29T10:03:51;9.32;;;3.45;;
47009;SDS011;59230;54.164;-3.124;2022-07-29T10:06:19;6.88;;;3.00;;
47009;SDS011;59230;54.164;-3.124;2022-07-29T10:08:50;10.25;;;3.22;;
47009;SDS011;59230;54.164;-3.124;2022-07-29T10:11:17;7.88;;;2.65;;
47009;SDS011;59230;54.164;-3.124;2022-07-29T10:13:54;8.63;;;3.60;;
47009;SDS011;59230;54.164;-3.124;2022-07-29T10:16:49;9.40;;;3.30;;
47009;SDS011;59230;54.164;-3.124;2022-07-29T12:44:13;15.13;;;5.70;;
47009;SDS011;59230;54.164;-3.124;2022-07-29T12:46:39;14.93;;;6.38;;
47009;SDS011;59230;54.164;-3.124;2022-07-29T12:49:05;17.25;;;6.63;;
47009;SDS011;59230;54.164;-3.124;2022-07-29T12:51:34;14.48;;;7.25;;
47009;SDS011;59230;54.164;-3.124;2022-07-29T12:54:09;13.70;;;6.93;;
47009;SDS011;59230;54.164;-3.124;2022-07-29T12:56:39;13.30;;;6.70;;
47009;SDS011;59230;54.164;-3.124;2022-07-29T13:01:41;12.73;;;6.20;;
47009;SDS011;59230;54.164;-3.124;2022-07-29T13:04:07;12.20;;;6.20;;
47009;SDS011;59230;54.164;-3.124;2022-07-29T13:06:41;12.70;;;7.40;;
47009;SDS011;59230;54.164;-3.124;2022-07-29T13:09:16;13.07;;;7.25;;
47009;SDS011;59230;54.164;-3.124;2022-07-29T13:11:48;16.10;;;8.63;;
47009;SDS011;59230;54.164;-3.124;2022-07-29T13:14:39;17.17;;;8.43;;
47009;SDS011;59230;54.164;-3.124;2022-07-29T13:17:14;14.57;;;7.72;;
47009;SDS011;59230;54.164;-3.124;2022-07-29T13:20:22;17.05;;;7.35;;
47009;SDS011;59230;54.164;-3.124;2022-07-29T13:22:42;17.58;;;9.13;;
47009;SDS011;59230;54.164;-3.124;2022-07-29T13:25:08;12.90;;;7.82;;
47009;SDS011;59230;54.164;-3.124;2022-07-29T13:27:36;12.60;;;8.23;;
47009;SDS011;59230;54.164;-3.124;2022-07-29T13:30:04;13.63;;;7.03;;
47009;SDS011;59230;54.164;-3.124;2022-07-29T13:32:31;15.13;;;7.32;;
47009;SDS011;59230;54.164;-3.124;2022-07-29T13:35:05;13.25;;;7.07;;
47009;SDS011;59230;54.164;-3.124;2022-07-29T13:37:34;13.43;;;8.75;;
47009;SDS011;59230;54.164;-3.124;2022-07-29T13:40:04;11.38;;;6.43;;
47009;SDS011;59230;54.164;-3.124;2022-07-29T13:42:32;14.52;;;7.50;;
47009;SDS011;59230;54.164;-3.124;2022-07-29T13:45:01;14.50;;;7.88;;
47009;SDS011;59230;54.164;-3.124;2022-07-29T13:47:26;17.35;;;8.13;;
47009;SDS011;59230;54.164;-3.124;2022-07-29T13:49:53;18.02;;;7.10;;
47009;SDS011;59230;54.164;-3.124;2022-07-29T13:52:20;22.02;;;8.07;;
47009;SDS011;59230;54.164;-3.124;2022-07-29T13:54:49;12.15;;;6.78;;
47009;SDS011;59230;54.164;-3.124;2022-07-29T13:57:16;15.18;;;6.68;;
47009;SDS011;59230;54.164;-3.124;2022-07-29T13:59:45;15.90;;;6.93;;
47009;SDS011;59230;54.164;-3.124;2022-07-29T14:05:02;13.07;;;7.15;;
47009;SDS011;59230;54.164;-3.124;2022-07-29T14:07:31;14.52;;;6.45;;
47009;SDS011;59230;54.164;-3.124;2022-07-29T14:09:58;15.45;;;6.60;;
47009;SDS011;59230;54.164;-3.124;2022-07-29T14:12:25;18.38;;;6.20;;
47009;SDS011;59230;54.164;-3.124;2022-07-29T14:14:51;13.07;;;6.80;;
47009;SDS011;59230;54.164;-3.124;2022-07-29T14:17:17;17.80;;;6.50;;
47009;SDS011;59230;54.164;-3.124;2022-07-29T14:19:44;17.10;;;6.35;;
47009;SDS011;59230;54.164;-3.124;2022-07-29T14:22:12;12.65;;;6.20;;
47009;SDS011;59230;54.164;-3.124;2022-07-29T14:24:37;14.63;;;6.28;;
47009;SDS011;59230;54.164;-3.124;2022-07-29T14:27:04;14.85;;;7.25;;
47009;SDS011;59230;54.164;-3.124;2022-07-29T14:29:31;12.52;;;7.03;;
47009;SDS011;59230;54.164;-3.124;2022-07-29T14:31:57;11.43;;;5.72;;
47009;SDS011;59230;54.164;-3.124;2022-07-29T14:34:28;11.48;;;3.95;;
47009;SDS011;59230;54.164;-3.124;2022-07-29T14:36:56;8.90;;;3.05;;
47009;SDS011;59230;54.164;-3.124;2022-07-29T14:39:21;6.85;;;1.95;;
47009;SDS011;59230;54.164;-3.124;2022-07-29T14:41:50;7.32;;;2.53;;
47009;SDS011;59230;54.164;-3.124;2022-07-29T14:44:21;4.82;;;2.33;;
47009;SDS011;59230;54.164;-3.124;2022-07-29T14:46:52;8.25;;;2.15;;
47009;SDS011;59230;54.164;-3.124;2022-07-29T14:49:18;5.68;;;1.95;;
47009;SDS011;59230;54.164;-3.124;2022-07-29T14:51:44;8.18;;;2.78;;
47009;SDS011;59230;54.164;-3.124;2022-07-29T14:54:11;8.75;;;2.50;;
47009;SDS011;59230;54.164;-3.124;2022-07-29T14:56:38;5.40;;;2.78;;
47009;SDS011;59230;54.164;-3.124;2022-07-29T14:59:06;10.60;;;2.63;;
47009;SDS011;59230;54.164;-3.124;2022-07-29T15:01:31;7.25;;;2.10;;
47009;SDS011;59230;54.164;-3.124;2022-07-29T15:06:44;8.48;;;2.10;;
47009;SDS011;59230;54.164;-3.124;2022-07-29T15:09:12;5.20;;;1.60;;
47009;SDS011;59230;54.164;-3.124;2022-07-29T15:11:40;6.93;;;2.03;;
47009;SDS011;59230;54.164;-3.124;2022-07-29T15:14:07;8.50;;;2.90;;
47009;SDS011;59230;54.164;-3.124;2022-07-29T15:16:34;6.80;;;2.75;;
47009;SDS011;59230;54.164;-3.124;2022-07-29T15:19:08;8.17;;;2.33;;
47009;SDS011;59230;54.164;-3.124;2022-07-29T15:21:37;5.38;;;2.03;;
47009;SDS011;59230;54.164;-3.124;2022-07-29T15:24:06;5.20;;;1.92;;
47009;SDS011;59230;54.164;-3.124;2022-07-29T15:26:33;6.10;;;1.98;;
47009;SDS011;59230;54.164;-3.124;2022-07-29T15:28:59;4.82;;;1.73;;
47009;SDS011;59230;54.164;-3.124;2022-07-29T15:31:26;3.42;;;1.40;;
47009;SDS011;59230;54.164;-3.124;2022-07-29T15:33:55;6.95;;;2.03;;
47009;SDS011;59230;54.164;-3.124;2022-07-29T15:36:21;8.55;;;2.30;;
47009;SDS011;59230;54.164;-3.124;2022-07-29T15:38:51;3.38;;;1.67;;
47009;SDS011;59230;54.164;-3.124;2022-07-29T15:41:19;6.50;;;2.42;;
47009;SDS011;59230;54.164;-3.124;2022-07-29T15:43:46;4.95;;;1.67;;
47009;SDS011;59230;54.164;-3.124;2022-07-29T15:46:17;3.92;;;1.60;;
47009;SDS011;59230;54.164;-3.124;2022-07-29T15:49:06;6.68;;;1.60;;
47009;SDS011;59230;54.164;-3.124;2022-07-29T15:51:32;5.43;;;1.58;;
47009;SDS011;59230;54.164;-3.124;2022-07-29T15:54:00;4.32;;;1.70;;
47009;SDS011;59230;54.164;-3.124;2022-07-29T15:56:26;6.90;;;1.73;;
47009;SDS011;59230;54.164;-3.124;2022-07-29T15:58:58;6.80;;;1.60;;
47009;SDS011;59230;54.164;-3.124;2022-07-29T16:01:25;5.80;;;1.67;;
47009;SDS011;59230;54.164;-3.124;2022-07-29T16:03:50;7.10;;;2.00;;
47009;SDS011;59230;54.164;-3.124;2022-07-29T16:08:55;4.18;;;1.75;;
47009;SDS011;59230;54.164;-3.124;2022-07-29T16:11:26;9.00;;;2.10;;
47009;SDS011;59230;54.164;-3.124;2022-07-29T16:13:52;7.63;;;2.22;;
47009;SDS011;59230;54.164;-3.124;2022-07-29T16:16:18;9.27;;;2.45;;
47009;SDS011;59230;54.164;-3.124;2022-07-29T16:18:44;5.90;;;2.28;;
47009;SDS011;59230;54.164;-3.124;2022-07-29T16:21:10;9.13;;;2.45;;
47009;SDS011;59230;54.164;-3.124;2022-07-29T16:23:40;6.72;;;2.67;;
47009;SDS011;59230;54.164;-3.124;2022-07-29T16:26:06;9.18;;;2.15;;
47009;SDS011;59230;54.164;-3.124;2022-07-29T16:28:32;4.13;;;2.00;;
47009;SDS011;59230;54.164;-3.124;2022-07-29T16:30:58;5.88;;;2.35;;
47009;SDS011;59230;54.164;-3.124;2022-07-29T16:33:27;7.90;;;2.85;;
47009;SDS011;59230;54.164;-3.124;2022-07-29T16:35:55;10.88;;;2.58;;
47009;SDS011;59230;54.164;-3.124;2022-07-29T16:38:21;10.02;;;2.58;;
47009;SDS011;59230;54.164;-3.124;2022-07-29T16:40:46;7.10;;;2.28;;
47009;SDS011;59230;54.164;-3.124;2022-07-29T16:43:14;8.55;;;2.17;;
47009;SDS011;59230;54.164;-3.124;2022-07-29T16:45:41;8.43;;;2.35;;
47009;SDS011;59230;54.164;-3.124;2022-07-29T16:48:07;4.32;;;2.22;;
47009;SDS011;59230;54.164;-3.124;2022-07-29T16:50:35;6.43;;;2.33;;
47009;SDS011;59230;54.164;-3.124;2022-07-29T16:53:02;5.97;;;2.95;;
47009;SDS011;59230;54.164;-3.124;2022-07-29T16:55:32;7.55;;;3.03;;
47009;SDS011;59230;54.164;-3.124;2022-07-29T16:57:59;6.63;;;2.67;;
47009;SDS011;59230;54.164;-3.124;2022-07-29T17:00:27;8.48;;;2.53;;
47009;SDS011;59230;54.164;-3.124;2022-07-29T17:02:53;7.18;;;2.55;;
47009;SDS011;59230;54.164;-3.124;2022-07-29T17:05:20;7.05;;;2.47;;
47009;SDS011;59230;54.164;-3.124;2022-07-29T17:10:35;6.80;;;2.75;;
47009;SDS011;59230;54.164;-3.124;2022-07-29T17:13:04;12.25;;;3.17;;
47009;SDS011;59230;54.164;-3.124;2022-07-29T17:15:29;6.03;;;2.45;;
47009;SDS011;59230;54.164;-3.124;2022-07-29T17:17:56;6.38;;;3.30;;
47009;SDS011;59230;54.164;-3.124;2022-07-29T17:20:27;11.18;;;3.60;;
47009;SDS011;59230;54.164;-3.124;2022-07-29T17:22:53;8.25;;;3.03;;
47009;SDS011;59230;54.164;-3.124;2022-07-29T17:25:19;6.90;;;3.33;;
47009;SDS011;59230;54.164;-3.124;2022-07-29T17:27:45;10.50;;;2.67;;
47009;SDS011;59230;54.164;-3.124;2022-07-29T17:30:11;7.93;;;2.97;;
47009;SDS011;59230;54.164;-3.124;2022-07-29T17:32:38;8.85;;;2.33;;
47009;SDS011;59230;54.164;-3.124;2022-07-29T17:35:05;10.50;;;2.80;;
47009;SDS011;59230;54.164;-3.124;2022-07-29T17:37:51;7.90;;;2.70;;
47009;SDS011;59230;54.164;-3.124;2022-07-29T17:40:18;7.40;;;2.97;;
47009;SDS011;59230;54.164;-3.124;2022-07-29T17:42:44;11.18;;;2.70;;
47009;SDS011;59230;54.164;-3.124;2022-07-29T17:45:09;8.93;;;3.30;;
47009;SDS011;59230;54.164;-3.124;2022-07-29T17:47:38;7.07;;;2.92;;
47009;SDS011;59230;54.164;-3.124;2022-07-29T17:50:03;8.73;;;2.90;;
47009;SDS011;59230;54.164;-3.124;2022-07-29T17:52:31;10.27;;;3.45;;
47009;SDS011;59230;54.164;-3.124;2022-07-29T17:54:59;11.80;;;3.17;;
47009;SDS011;59230;54.164;-3.124;2022-07-29T17:57:28;7.95;;;2.97;;
47009;SDS011;59230;54.164;-3.124;2022-07-29T17:59:54;6.85;;;2.60;;
47009;SDS011;59230;54.164;-3.124;2022-07-29T18:02:19;8.82;;;2.90;;
47009;SDS011;59230;54.164;-3.124;2022-07-29T18:04:47;5.32;;;2.38;;
47009;SDS011;59230;54.164;-3.124;2022-07-29T18:07:15;7.88;;;2.40;;
47009;SDS011;59230;54.164;-3.124;2022-07-29T18:09:40;5.97;;;2.45;;
47009;SDS011;59230;54.164;-3.124;2022-07-29T18:12:06;6.38;;;1.92;;
47009;SDS011;59230;54.164;-3.124;2022-07-29T18:14:34;7.57;;;2.42;;
47009;SDS011;59230;54.164;-3.124;2022-07-29T18:17:00;5.25;;;1.95;;
47009;SDS011;59230;54.164;-3.124;2022-07-29T18:19:26;8.40;;;2.15;;
47009;SDS011;59230;54.164;-3.124;2022-07-29T18:21:52;6.13;;;2.13;;
47009;SDS011;59230;54.164;-3.124;2022-07-29T18:24:19;7.85;;;2.45;;
47009;SDS011;59230;54.164;-3.124;2022-07-29T18:26:47;5.68;;;1.90;;
47009;SDS011;59230;54.164;-3.124;2022-07-29T18:29:13;4.43;;;2.40;;
47009;SDS011;59230;54.164;-3.124;2022-07-29T18:31:39;6.53;;;2.50;;
47009;SDS011;59230;54.164;-3.124;2022-07-29T18:34:10;7.82;;;2.70;;
47009;SDS011;59230;54.164;-3.124;2022-07-29T18:36:39;6.07;;;2.30;;
47009;SDS011;59230;54.164;-3.124;2022-07-29T18:39:04;6.70;;;2.33;;
47009;SDS011;59230;54.164;-3.124;2022-07-29T18:41:30;6.03;;;2.17;;
47009;SDS011;59230;54.164;-3.124;2022-07-29T18:43:57;6.32;;;2.70;;
47009;SDS011;59230;54.164;-3.124;2022-07-29T18:46:23;7.45;;;2.40;;
47009;SDS011;59230;54.164;-3.124;2022-07-29T18:48:49;8.30;;;3.00;;
47009;SDS011;59230;54.164;-3.124;2022-07-29T18:51:15;7.88;;;2.22;;
47009;SDS011;59230;54.164;-3.124;2022-07-29T18:53:43;5.47;;;2.63;;
47009;SDS011;59230;54.164;-3.124;2022-07-29T18:56:08;5.28;;;2.08;;
47009;SDS011;59230;54.164;-3.124;2022-07-29T18:58:33;5.10;;;2.30;;
47009;SDS011;59230;54.164;-3.124;2022-07-29T19:01:02;6.18;;;2.55;;
47009;SDS011;59230;54.164;-3.124;2022-07-29T19:03:31;6.55;;;2.97;;
47009;SDS011;59230;54.164;-3.124;2022-07-29T19:05:57;8.27;;;2.80;;
47009;SDS011;59230;54.164;-3.124;2022-07-29T19:08:23;7.63;;;2.60;;